sensor_id;sensor_type;location;lat;lon;timestamp;temperature;humidity
11188;DHT22;5650;52.700;7.306;2023-03-03T00:00:53;2.90;99.90
11188;DHT22;5650;52.700;7.306;2023-03-03T00:03:22;3.00;99.90
11188;DHT22;5650;52.700;7.306;2023-03-03T00:05:51;3.00;99.90
11188;DHT22;5650;52.700;7.306;2023-03-03T00:08:19;3.00;99.90
11188;DHT22;5650;52.700;7.306;2023-03-03T00:10:52;3.00;99.90
11188;DHT22;5650;52.700;7.306;2023-03-03T00:13:23;3.00;99.90
11188;DHT22;5650;52.700;7.306;2023-03-03T00:16:14;3.00;99.90
11188;DHT22;5650;52.700;7.306;2023-03-03T00:18:46;3.00;99.90
11188;DHT22;5650;52.700;7.306;2023-03-03T00:21:32;3.00;99.90
11188;DHT22;5650;52.700;7.306;2023-03-03T00:24:27;3.00;99.90
11188;DHT22;5650;52.700;7.306;2023-03-03T00:27:26;3.00;99.90
11188;DHT22;5650;52.700;7.306;2023-03-03T00:30:19;3.00;99.90
11188;DHT22;5650;52.700;7.306;2023-03-03T00:32:51;3.00;99.90
11188;DHT22;5650;52.700;7.306;2023-03-03T00:35:26;3.00;99.90
11188;DHT22;5650;52.700;7.306;2023-03-03T00:38:11;3.00;99.90
11188;DHT22;5650;52.700;7.306;2023-03-03T00:40:48;3.10;99.90
11188;DHT22;5650;52.700;7.306;2023-03-03T00:43:21;3.10;99.90
11188;DHT22;5650;52.700;7.306;2023-03-03T00:45:53;3.00;99.90
11188;DHT22;5650;52.700;7.306;2023-03-03T00:48:24;3.10;99.90
11188;DHT22;5650;52.700;7.306;2023-03-03T00:50:56;3.00;99.90
11188;DHT22;5650;52.700;7.306;2023-03-03T00:53:25;3.00;99.90
11188;DHT22;5650;52.700;7.306;2023-03-03T00:56:05;3.00;99.90
11188;DHT22;5650;52.700;7.306;2023-03-03T00:58:42;3.00;99.90
11188;DHT22;5650;52.700;7.306;2023-03-03T01:01:22;3.00;99.90
11188;DHT22;5650;52.700;7.306;2023-03-03T01:04:08;3.00;99.90
11188;DHT22;5650;52.700;7.306;2023-03-03T01:06:35;3.00;99.90
11188;DHT22;5650;52.700;7.306;2023-03-03T01:09:18;3.00;99.90
11188;DHT22;5650;52.700;7.306;2023-03-03T01:11:47;3.00;99.90
11188;DHT22;5650;52.700;7.306;2023-03-03T01:14:18;2.90;99.90
11188;DHT22;5650;52.700;7.306;2023-03-03T01:16:53;2.90;99.90
11188;DHT22;5650;52.700;7.306;2023-03-03T01:19:26;2.90;99.90
11188;DHT22;5650;52.700;7.306;2023-03-03T01:21:53;2.80;99.90
11188;DHT22;5650;52.700;7.306;2023-03-03T01:24:33;2.80;99.90
11188;DHT22;5650;52.700;7.306;2023-03-03T01:27:07;2.80;99.90
11188;DHT22;5650;52.700;7.306;2023-03-03T01:29:37;2.80;99.90
11188;DHT22;5650;52.700;7.306;2023-03-03T01:32:27;2.80;99.90
11188;DHT22;5650;52.700;7.306;2023-03-03T01:34:56;2.80;99.90
11188;DHT22;5650;52.700;7.306;2023-03-03T01:37:26;2.80;99.90
11188;DHT22;5650;52.700;7.306;2023-03-03T01:39:54;2.80;99.90
11188;DHT22;5650;52.700;7.306;2023-03-03T01:42:24;2.80;99.90
11188;DHT22;5650;52.700;7.306;2023-03-03T01:45:19;2.80;99.90
11188;DHT22;5650;52.700;7.306;2023-03-03T01:48:14;2.80;99.90
11188;DHT22;5650;52.700;7.306;2023-03-03T01:50:50;2.80;99.90
11188;DHT22;5650;52.700;7.306;2023-03-03T02:13:35;2.70;99.90
11188;DHT22;5650;52.700;7.306;2023-03-03T02:16:02;2.70;99.90
11188;DHT22;5650;52.700;7.306;2023-03-03T02:18:30;2.80;99.90
11188;DHT22;5650;52.700;7.306;2023-03-03T02:21:01;2.80;99.90
11188;DHT22;5650;52.700;7.306;2023-03-03T02:23:35;2.80;99.90
11188;DHT22;5650;52.700;7.306;2023-03-03T02:26:14;2.80;99.90
11188;DHT22;5650;52.700;7.306;2023-03-03T02:28:48;2.80;99.90
11188;DHT22;5650;52.700;7.306;2023-03-03T02:31:18;2.80;99.90
11188;DHT22;5650;52.700;7.306;2023-03-03T02:33:50;2.80;99.90
11188;DHT22;5650;52.700;7.306;2023-03-03T02:36:20;2.80;99.90
11188;DHT22;5650;52.700;7.306;2023-03-03T02:38:52;2.80;99.90
11188;DHT22;5650;52.700;7.306;2023-03-03T02:41:29;2.80;99.90
11188;DHT22;5650;52.700;7.306;2023-03-03T02:44:07;2.80;99.90
11188;DHT22;5650;52.700;7.306;2023-03-03T02:46:40;2.80;99.90
11188;DHT22;5650;52.700;7.306;2023-03-03T02:49:09;2.80;99.90
11188;DHT22;5650;52.700;7.306;2023-03-03T02:51:37;2.80;99.90
11188;DHT22;5650;52.700;7.306;2023-03-03T02:54:05;2.80;99.90
11188;DHT22;5650;52.700;7.306;2023-03-03T02:56:35;2.80;99.90
11188;DHT22;5650;52.700;7.306;2023-03-03T02:59:03;2.80;99.90
11188;DHT22;5650;52.700;7.306;2023-03-03T03:01:30;2.80;99.90
11188;DHT22;5650;52.700;7.306;2023-03-03T03:04:02;2.80;99.90
11188;DHT22;5650;52.700;7.306;2023-03-03T03:06:31;2.80;99.90
11188;DHT22;5650;52.700;7.306;2023-03-03T03:08:58;2.80;99.90
11188;DHT22;5650;52.700;7.306;2023-03-03T03:11:25;2.80;99.90
11188;DHT22;5650;52.700;7.306;2023-03-03T03:13:54;2.80;99.90
11188;DHT22;5650;52.700;7.306;2023-03-03T03:16:24;2.80;99.90
11188;DHT22;5650;52.700;7.306;2023-03-03T03:18:54;2.80;99.90
11188;DHT22;5650;52.700;7.306;2023-03-03T03:21:24;2.80;99.90
11188;DHT22;5650;52.700;7.306;2023-03-03T03:23:52;2.80;99.90
11188;DHT22;5650;52.700;7.306;2023-03-03T03:26:19;2.80;99.90
11188;DHT22;5650;52.700;7.306;2023-03-03T03:28:47;2.80;99.90
11188;DHT22;5650;52.700;7.306;2023-03-03T03:31:19;2.70;99.90
11188;DHT22;5650;52.700;7.306;2023-03-03T03:33:49;2.70;99.90
11188;DHT22;5650;52.700;7.306;2023-03-03T03:36:17;2.70;99.90
11188;DHT22;5650;52.700;7.306;2023-03-03T03:38:50;2.70;99.90
11188;DHT22;5650;52.700;7.306;2023-03-03T03:41:18;2.70;99.90
11188;DHT22;5650;52.700;7.306;2023-03-03T03:43:46;2.70;99.90
11188;DHT22;5650;52.700;7.306;2023-03-03T03:46:13;2.70;99.90
11188;DHT22;5650;52.700;7.306;2023-03-03T03:48:44;2.70;99.90
11188;DHT22;5650;52.700;7.306;2023-03-03T03:51:17;2.70;99.90
11188;DHT22;5650;52.700;7.306;2023-03-03T03:53:47;2.70;99.90
11188;DHT22;5650;52.700;7.306;2023-03-03T03:56:14;2.70;99.90
11188;DHT22;5650;52.700;7.306;2023-03-03T03:58:49;2.80;99.90
11188;DHT22;5650;52.700;7.306;2023-03-03T04:01:19;2.80;99.90
11188;DHT22;5650;52.700;7.306;2023-03-03T04:03:48;2.80;99.90
11188;DHT22;5650;52.700;7.306;2023-03-03T04:06:15;2.80;99.90
11188;DHT22;5650;52.700;7.306;2023-03-03T04:08:42;2.80;99.90
11188;DHT22;5650;52.700;7.306;2023-03-03T04:11:18;2.80;99.90
11188;DHT22;5650;52.700;7.306;2023-03-03T04:13:45;2.90;99.90
11188;DHT22;5650;52.700;7.306;2023-03-03T04:16:12;2.90;99.90
11188;DHT22;5650;52.700;7.306;2023-03-03T04:18:41;2.90;99.90
11188;DHT22;5650;52.700;7.306;2023-03-03T04:21:15;2.90;99.90
11188;DHT22;5650;52.700;7.306;2023-03-03T04:23:45;2.90;99.90
11188;DHT22;5650;52.700;7.306;2023-03-03T04:26:15;2.90;99.90
11188;DHT22;5650;52.700;7.306;2023-03-03T04:28:46;2.90;99.90
11188;DHT22;5650;52.700;7.306;2023-03-03T04:31:13;2.90;99.90
11188;DHT22;5650;52.700;7.306;2023-03-03T04:33:44;2.90;99.90
11188;DHT22;5650;52.700;7.306;2023-03-03T04:36:12;3.00;99.90
11188;DHT22;5650;52.700;7.306;2023-03-03T04:38:40;3.00;99.90
11188;DHT22;5650;52.700;7.306;2023-03-03T04:41:07;3.00;99.90
11188;DHT22;5650;52.700;7.306;2023-03-03T04:43:34;3.00;99.90
11188;DHT22;5650;52.700;7.306;2023-03-03T04:46:07;3.00;99.90
11188;DHT22;5650;52.700;7.306;2023-03-03T04:48:37;3.00;99.90
11188;DHT22;5650;52.700;7.306;2023-03-03T04:51:07;3.00;99.90
11188;DHT22;5650;52.700;7.306;2023-03-03T04:53:36;2.90;99.90
11188;DHT22;5650;52.700;7.306;2023-03-03T04:56:03;2.90;99.90
11188;DHT22;5650;52.700;7.306;2023-03-03T04:58:31;2.90;99.90
11188;DHT22;5650;52.700;7.306;2023-03-03T05:00:58;2.90;99.90
11188;DHT22;5650;52.700;7.306;2023-03-03T05:03:25;2.90;99.90
11188;DHT22;5650;52.700;7.306;2023-03-03T05:05:53;2.90;99.90
11188;DHT22;5650;52.700;7.306;2023-03-03T05:08:24;3.00;99.90
11188;DHT22;5650;52.700;7.306;2023-03-03T05:10:55;3.00;99.90
11188;DHT22;5650;52.700;7.306;2023-03-03T05:13:24;3.00;99.90
11188;DHT22;5650;52.700;7.306;2023-03-03T05:15:54;3.00;99.90
11188;DHT22;5650;52.700;7.306;2023-03-03T05:18:22;3.00;99.90
11188;DHT22;5650;52.700;7.306;2023-03-03T05:20:50;3.00;99.90
11188;DHT22;5650;52.700;7.306;2023-03-03T05:23:18;3.10;99.90
11188;DHT22;5650;52.700;7.306;2023-03-03T05:25:46;3.10;99.90
11188;DHT22;5650;52.700;7.306;2023-03-03T05:28:16;3.10;99.90
11188;DHT22;5650;52.700;7.306;2023-03-03T05:30:52;3.10;99.90
11188;DHT22;5650;52.700;7.306;2023-03-03T05:33:19;3.10;99.90
11188;DHT22;5650;52.700;7.306;2023-03-03T05:35:53;3.20;99.90
11188;DHT22;5650;52.700;7.306;2023-03-03T05:38:20;3.20;99.90
11188;DHT22;5650;52.700;7.306;2023-03-03T05:40:47;3.20;99.90
11188;DHT22;5650;52.700;7.306;2023-03-03T05:43:16;3.30;99.90
11188;DHT22;5650;52.700;7.306;2023-03-03T05:45:54;3.30;99.90
11188;DHT22;5650;52.700;7.306;2023-03-03T05:48:21;3.30;99.90
11188;DHT22;5650;52.700;7.306;2023-03-03T05:50:48;3.30;99.90
11188;DHT22;5650;52.700;7.306;2023-03-03T05:53:15;3.30;99.90
11188;DHT22;5650;52.700;7.306;2023-03-03T05:55:45;3.30;99.90
11188;DHT22;5650;52.700;7.306;2023-03-03T05:58:12;3.30;99.90
11188;DHT22;5650;52.700;7.306;2023-03-03T06:00:41;3.30;99.90
11188;DHT22;5650;52.700;7.306;2023-03-03T06:03:08;3.30;99.90
11188;DHT22;5650;52.700;7.306;2023-03-03T06:05:39;3.30;99.90
11188;DHT22;5650;52.700;7.306;2023-03-03T06:08:06;3.30;99.90
11188;DHT22;5650;52.700;7.306;2023-03-03T06:10:42;3.30;99.90
11188;DHT22;5650;52.700;7.306;2023-03-03T06:13:12;3.30;99.90
11188;DHT22;5650;52.700;7.306;2023-03-03T06:15:41;3.30;99.90
11188;DHT22;5650;52.700;7.306;2023-03-03T06:18:09;3.30;99.90
11188;DHT22;5650;52.700;7.306;2023-03-03T06:20:36;3.30;99.90
11188;DHT22;5650;52.700;7.306;2023-03-03T06:23:03;3.30;99.90
11188;DHT22;5650;52.700;7.306;2023-03-03T06:25:31;3.30;99.90
11188;DHT22;5650;52.700;7.306;2023-03-03T06:28:03;3.30;99.90
11188;DHT22;5650;52.700;7.306;2023-03-03T06:30:30;3.30;99.90
11188;DHT22;5650;52.700;7.306;2023-03-03T06:33:04;3.30;99.90
11188;DHT22;5650;52.700;7.306;2023-03-03T06:35:38;3.30;99.90
11188;DHT22;5650;52.700;7.306;2023-03-03T06:38:05;3.30;99.90
11188;DHT22;5650;52.700;7.306;2023-03-03T06:40:32;3.30;99.90
11188;DHT22;5650;52.700;7.306;2023-03-03T06:43:00;3.30;99.90
11188;DHT22;5650;52.700;7.306;2023-03-03T06:45:28;3.40;99.90
11188;DHT22;5650;52.700;7.306;2023-03-03T06:47:56;3.40;99.90
11188;DHT22;5650;52.700;7.306;2023-03-03T06:50:24;3.40;99.90
11188;DHT22;5650;52.700;7.306;2023-03-03T06:53:00;3.40;99.90
11188;DHT22;5650;52.700;7.306;2023-03-03T06:55:31;3.40;99.90
11188;DHT22;5650;52.700;7.306;2023-03-03T06:57:59;3.40;99.90
11188;DHT22;5650;52.700;7.306;2023-03-03T07:00:28;3.40;99.90
11188;DHT22;5650;52.700;7.306;2023-03-03T07:02:58;3.40;99.90
11188;DHT22;5650;52.700;7.306;2023-03-03T07:05:28;3.50;99.90
11188;DHT22;5650;52.700;7.306;2023-03-03T07:07:55;3.50;99.90
11188;DHT22;5650;52.700;7.306;2023-03-03T07:10:25;3.50;99.90
11188;DHT22;5650;52.700;7.306;2023-03-03T07:12:52;3.50;99.90
11188;DHT22;5650;52.700;7.306;2023-03-03T07:15:30;3.60;99.90
11188;DHT22;5650;52.700;7.306;2023-03-03T07:17:59;3.60;99.90
11188;DHT22;5650;52.700;7.306;2023-03-03T07:20:32;3.70;99.90
11188;DHT22;5650;52.700;7.306;2023-03-03T07:23:13;3.70;99.90
11188;DHT22;5650;52.700;7.306;2023-03-03T07:25:42;3.70;99.90
11188;DHT22;5650;52.700;7.306;2023-03-03T07:28:21;3.70;99.90
11188;DHT22;5650;52.700;7.306;2023-03-03T07:30:49;3.80;99.90
11188;DHT22;5650;52.700;7.306;2023-03-03T07:33:22;3.80;99.90
11188;DHT22;5650;52.700;7.306;2023-03-03T07:35:53;3.80;99.90
11188;DHT22;5650;52.700;7.306;2023-03-03T07:38:27;3.80;99.90
11188;DHT22;5650;52.700;7.306;2023-03-03T07:40:57;3.90;99.90
11188;DHT22;5650;52.700;7.306;2023-03-03T07:43:29;3.90;99.90
11188;DHT22;5650;52.700;7.306;2023-03-03T07:46:13;3.90;99.90
11188;DHT22;5650;52.700;7.306;2023-03-03T07:48:43;3.90;99.90
11188;DHT22;5650;52.700;7.306;2023-03-03T07:51:18;3.90;99.90
11188;DHT22;5650;52.700;7.306;2023-03-03T07:53:48;4.00;99.90
11188;DHT22;5650;52.700;7.306;2023-03-03T07:56:24;4.10;99.90
11188;DHT22;5650;52.700;7.306;2023-03-03T07:58:53;4.20;99.90
11188;DHT22;5650;52.700;7.306;2023-03-03T08:01:39;4.30;99.90
11188;DHT22;5650;52.700;7.306;2023-03-03T08:04:19;4.30;99.90
11188;DHT22;5650;52.700;7.306;2023-03-03T08:06:51;4.40;99.90
11188;DHT22;5650;52.700;7.306;2023-03-03T08:09:43;4.50;99.90
11188;DHT22;5650;52.700;7.306;2023-03-03T08:12:30;4.60;99.90
11188;DHT22;5650;52.700;7.306;2023-03-03T08:15:22;4.60;99.90
11188;DHT22;5650;52.700;7.306;2023-03-03T08:17:51;4.70;99.90
11188;DHT22;5650;52.700;7.306;2023-03-03T08:20:44;4.80;99.90
11188;DHT22;5650;52.700;7.306;2023-03-03T08:23:15;5.00;99.90
11188;DHT22;5650;52.700;7.306;2023-03-03T08:25:43;5.10;99.90
11188;DHT22;5650;52.700;7.306;2023-03-03T08:28:17;5.30;99.90
11188;DHT22;5650;52.700;7.306;2023-03-03T08:30:45;5.60;99.90
11188;DHT22;5650;52.700;7.306;2023-03-03T08:33:12;6.10;99.90
11188;DHT22;5650;52.700;7.306;2023-03-03T08:35:42;6.40;99.90
11188;DHT22;5650;52.700;7.306;2023-03-03T08:38:15;6.70;99.90
11188;DHT22;5650;52.700;7.306;2023-03-03T08:40:46;6.80;99.90
11188;DHT22;5650;52.700;7.306;2023-03-03T08:43:16;6.70;99.90
11188;DHT22;5650;52.700;7.306;2023-03-03T08:45:47;6.70;99.90
11188;DHT22;5650;52.700;7.306;2023-03-03T08:48:15;6.70;99.90
11188;DHT22;5650;52.700;7.306;2023-03-03T08:50:44;6.60;99.90
11188;DHT22;5650;52.700;7.306;2023-03-03T08:53:14;6.60;99.90
11188;DHT22;5650;52.700;7.306;2023-03-03T08:55:41;6.50;99.90
11188;DHT22;5650;52.700;7.306;2023-03-03T08:58:09;6.50;99.90
11188;DHT22;5650;52.700;7.306;2023-03-03T09:00:36;6.50;99.90
11188;DHT22;5650;52.700;7.306;2023-03-03T09:03:04;6.50;99.90
11188;DHT22;5650;52.700;7.306;2023-03-03T09:05:33;6.50;99.90
11188;DHT22;5650;52.700;7.306;2023-03-03T09:08:01;6.60;99.90
11188;DHT22;5650;52.700;7.306;2023-03-03T09:10:30;6.60;99.90
11188;DHT22;5650;52.700;7.306;2023-03-03T09:13:00;6.60;99.90
11188;DHT22;5650;52.700;7.306;2023-03-03T09:15:33;6.60;99.90
11188;DHT22;5650;52.700;7.306;2023-03-03T09:18:13;6.60;99.90
11188;DHT22;5650;52.700;7.306;2023-03-03T09:20:43;6.60;99.90
11188;DHT22;5650;52.700;7.306;2023-03-03T09:23:27;6.70;99.90
11188;DHT22;5650;52.700;7.306;2023-03-03T09:29:00;6.80;99.90
11188;DHT22;5650;52.700;7.306;2023-03-03T09:31:40;6.80;99.90
11188;DHT22;5650;52.700;7.306;2023-03-03T09:34:19;6.80;99.90
11188;DHT22;5650;52.700;7.306;2023-03-03T09:36:47;6.90;99.90
11188;DHT22;5650;52.700;7.306;2023-03-03T09:39:17;7.00;99.90
11188;DHT22;5650;52.700;7.306;2023-03-03T09:42:23;7.00;99.90
11188;DHT22;5650;52.700;7.306;2023-03-03T09:45:26;7.10;99.90
11188;DHT22;5650;52.700;7.306;2023-03-03T09:50:59;7.20;99.90
11188;DHT22;5650;52.700;7.306;2023-03-03T09:53:40;7.20;99.90
11188;DHT22;5650;52.700;7.306;2023-03-03T09:56:18;7.20;99.90
11188;DHT22;5650;52.700;7.306;2023-03-03T09:58:58;7.10;99.90
11188;DHT22;5650;52.700;7.306;2023-03-03T10:01:42;7.10;99.90
11188;DHT22;5650;52.700;7.306;2023-03-03T10:04:46;7.20;99.90
11188;DHT22;5650;52.700;7.306;2023-03-03T10:07:34;7.20;99.90
11188;DHT22;5650;52.700;7.306;2023-03-03T10:10:13;7.30;99.90
11188;DHT22;5650;52.700;7.306;2023-03-03T10:12:51;7.40;99.90
11188;DHT22;5650;52.700;7.306;2023-03-03T10:15:30;7.50;99.90
11188;DHT22;5650;52.700;7.306;2023-03-03T10:18:05;7.50;99.90
11188;DHT22;5650;52.700;7.306;2023-03-03T10:20:44;7.60;99.90
11188;DHT22;5650;52.700;7.306;2023-03-03T10:23:19;7.70;99.90
11188;DHT22;5650;52.700;7.306;2023-03-03T10:26:14;7.80;99.90
11188;DHT22;5650;52.700;7.306;2023-03-03T10:29:00;8.00;99.90
11188;DHT22;5650;52.700;7.306;2023-03-03T10:31:40;8.00;99.90
11188;DHT22;5650;52.700;7.306;2023-03-03T10:37:29;8.00;99.90
11188;DHT22;5650;52.700;7.306;2023-03-03T10:40:11;8.00;99.90
11188;DHT22;5650;52.700;7.306;2023-03-03T10:45:48;7.80;99.90
11188;DHT22;5650;52.700;7.306;2023-03-03T10:48:41;7.80;99.90
11188;DHT22;5650;52.700;7.306;2023-03-03T10:51:21;7.80;99.90
11188;DHT22;5650;52.700;7.306;2023-03-03T10:54:02;7.80;99.90
11188;DHT22;5650;52.700;7.306;2023-03-03T10:56:39;7.90;99.90
11188;DHT22;5650;52.700;7.306;2023-03-03T10:59:22;7.90;99.90
11188;DHT22;5650;52.700;7.306;2023-03-03T11:01:58;8.00;99.90
11188;DHT22;5650;52.700;7.306;2023-03-03T11:04:52;8.00;99.90
11188;DHT22;5650;52.700;7.306;2023-03-03T11:07:25;8.10;99.90
11188;DHT22;5650;52.700;7.306;2023-03-03T11:12:50;8.10;99.90
11188;DHT22;5650;52.700;7.306;2023-03-03T11:15:51;8.10;99.90
11188;DHT22;5650;52.700;7.306;2023-03-03T11:18:32;8.10;99.90
11188;DHT22;5650;52.700;7.306;2023-03-03T11:21:08;8.10;99.90
11188;DHT22;5650;52.700;7.306;2023-03-03T11:24:00;8.20;99.90
11188;DHT22;5650;52.700;7.306;2023-03-03T11:26:43;8.30;99.90
11188;DHT22;5650;52.700;7.306;2023-03-03T11:29:26;8.40;99.90
11188;DHT22;5650;52.700;7.306;2023-03-03T11:31:56;8.30;99.90
11188;DHT22;5650;52.700;7.306;2023-03-03T11:34:46;8.30;99.90
11188;DHT22;5650;52.700;7.306;2023-03-03T11:37:21;8.20;99.90
11188;DHT22;5650;52.700;7.306;2023-03-03T11:39:52;8.00;99.90
11188;DHT22;5650;52.700;7.306;2023-03-03T11:42:33;8.00;99.90
11188;DHT22;5650;52.700;7.306;2023-03-03T11:45:13;8.00;99.90
11188;DHT22;5650;52.700;7.306;2023-03-03T11:47:52;8.00;99.90
11188;DHT22;5650;52.700;7.306;2023-03-03T11:50:28;8.00;99.90
11188;DHT22;5650;52.700;7.306;2023-03-03T11:53:16;8.00;99.90
11188;DHT22;5650;52.700;7.306;2023-03-03T11:55:51;8.00;99.90
11188;DHT22;5650;52.700;7.306;2023-03-03T11:58:26;8.10;99.90
11188;DHT22;5650;52.700;7.306;2023-03-03T12:01:00;8.20;99.90
11188;DHT22;5650;52.700;7.306;2023-03-03T12:03:32;8.20;99.90
11188;DHT22;5650;52.700;7.306;2023-03-03T12:06:16;8.30;99.90
11188;DHT22;5650;52.700;7.306;2023-03-03T12:09:03;8.30;99.90
11188;DHT22;5650;52.700;7.306;2023-03-03T12:11:46;8.30;99.90
11188;DHT22;5650;52.700;7.306;2023-03-03T12:14:28;8.40;99.90
11188;DHT22;5650;52.700;7.306;2023-03-03T12:17:05;8.40;99.90
11188;DHT22;5650;52.700;7.306;2023-03-03T12:19:45;8.40;99.90
11188;DHT22;5650;52.700;7.306;2023-03-03T12:22:21;8.40;99.90
11188;DHT22;5650;52.700;7.306;2023-03-03T12:25:09;8.50;99.90
11188;DHT22;5650;52.700;7.306;2023-03-03T12:27:47;8.50;99.90
11188;DHT22;5650;52.700;7.306;2023-03-03T12:30:24;8.60;99.90
11188;DHT22;5650;52.700;7.306;2023-03-03T12:33:13;8.60;99.90
11188;DHT22;5650;52.700;7.306;2023-03-03T12:35:50;8.60;99.90
11188;DHT22;5650;52.700;7.306;2023-03-03T12:38:28;8.70;99.90
11188;DHT22;5650;52.700;7.306;2023-03-03T12:41:07;8.60;99.90
11188;DHT22;5650;52.700;7.306;2023-03-03T12:43:54;8.60;99.90
11188;DHT22;5650;52.700;7.306;2023-03-03T12:46:32;8.50;99.90
11188;DHT22;5650;52.700;7.306;2023-03-03T12:49:15;8.40;99.90
11188;DHT22;5650;52.700;7.306;2023-03-03T12:51:50;8.30;99.90
11188;DHT22;5650;52.700;7.306;2023-03-03T12:54:49;8.10;99.90
11188;DHT22;5650;52.700;7.306;2023-03-03T12:57:27;8.10;99.90
11188;DHT22;5650;52.700;7.306;2023-03-03T13:00:23;8.10;99.90
11188;DHT22;5650;52.700;7.306;2023-03-03T13:03:03;8.10;99.90
11188;DHT22;5650;52.700;7.306;2023-03-03T13:05:43;8.00;99.90
11188;DHT22;5650;52.700;7.306;2023-03-03T13:08:32;8.00;99.90
11188;DHT22;5650;52.700;7.306;2023-03-03T13:11:18;8.00;99.90
11188;DHT22;5650;52.700;7.306;2023-03-03T13:13:52;8.00;99.90
11188;DHT22;5650;52.700;7.306;2023-03-03T13:16:28;8.00;99.90
11188;DHT22;5650;52.700;7.306;2023-03-03T13:18:59;8.00;99.90
11188;DHT22;5650;52.700;7.306;2023-03-03T13:21:42;8.10;99.90
11188;DHT22;5650;52.700;7.306;2023-03-03T13:24:17;8.10;99.90
11188;DHT22;5650;52.700;7.306;2023-03-03T13:26:54;8.10;99.90
11188;DHT22;5650;52.700;7.306;2023-03-03T13:29:32;8.10;99.90
11188;DHT22;5650;52.700;7.306;2023-03-03T13:32:10;8.10;99.90
11188;DHT22;5650;52.700;7.306;2023-03-03T13:34:46;8.10;99.90
11188;DHT22;5650;52.700;7.306;2023-03-03T13:37:20;8.10;99.90
11188;DHT22;5650;52.700;7.306;2023-03-03T13:39:55;8.10;99.90
11188;DHT22;5650;52.700;7.306;2023-03-03T13:42:32;8.10;99.90
11188;DHT22;5650;52.700;7.306;2023-03-03T13:45:12;8.10;99.90
11188;DHT22;5650;52.700;7.306;2023-03-03T13:47:47;8.20;99.90
11188;DHT22;5650;52.700;7.306;2023-03-03T13:50:22;8.20;99.90
11188;DHT22;5650;52.700;7.306;2023-03-03T13:53:04;8.20;99.90
11188;DHT22;5650;52.700;7.306;2023-03-03T13:55:43;8.10;99.90
11188;DHT22;5650;52.700;7.306;2023-03-03T13:58:21;7.90;99.90
11188;DHT22;5650;52.700;7.306;2023-03-03T14:00:56;7.90;99.90
11188;DHT22;5650;52.700;7.306;2023-03-03T14:03:41;7.90;99.90
11188;DHT22;5650;52.700;7.306;2023-03-03T14:06:14;7.90;99.90
11188;DHT22;5650;52.700;7.306;2023-03-03T14:09:11;7.90;99.90
11188;DHT22;5650;52.700;7.306;2023-03-03T14:11:48;7.90;99.90
11188;DHT22;5650;52.700;7.306;2023-03-03T14:14:29;7.90;99.90
11188;DHT22;5650;52.700;7.306;2023-03-03T14:17:02;8.00;99.90
11188;DHT22;5650;52.700;7.306;2023-03-03T14:19:33;8.00;99.90
11188;DHT22;5650;52.700;7.306;2023-03-03T14:22:14;8.10;99.90
11188;DHT22;5650;52.700;7.306;2023-03-03T14:25:00;8.30;99.90
11188;DHT22;5650;52.700;7.306;2023-03-03T14:27:39;8.30;99.90
11188;DHT22;5650;52.700;7.306;2023-03-03T14:30:41;8.30;99.90
11188;DHT22;5650;52.700;7.306;2023-03-03T14:33:26;8.30;99.90
11188;DHT22;5650;52.700;7.306;2023-03-03T14:36:11;8.30;99.90
11188;DHT22;5650;52.700;7.306;2023-03-03T14:38:46;8.20;99.90
11188;DHT22;5650;52.700;7.306;2023-03-03T14:41:19;8.20;99.90
11188;DHT22;5650;52.700;7.306;2023-03-03T14:43:56;8.30;99.90
11188;DHT22;5650;52.700;7.306;2023-03-03T14:46:40;8.30;99.90
11188;DHT22;5650;52.700;7.306;2023-03-03T14:49:28;8.30;99.90
11188;DHT22;5650;52.700;7.306;2023-03-03T14:52:23;8.30;99.90
11188;DHT22;5650;52.700;7.306;2023-03-03T14:54:51;8.30;99.90
11188;DHT22;5650;52.700;7.306;2023-03-03T14:57:20;8.30;99.90
11188;DHT22;5650;52.700;7.306;2023-03-03T14:59:56;8.30;99.90
11188;DHT22;5650;52.700;7.306;2023-03-03T15:02:34;8.40;99.90
11188;DHT22;5650;52.700;7.306;2023-03-03T15:05:28;8.40;99.90
11188;DHT22;5650;52.700;7.306;2023-03-03T15:07:57;8.50;99.90
11188;DHT22;5650;52.700;7.306;2023-03-03T15:10:33;8.40;99.90
11188;DHT22;5650;52.700;7.306;2023-03-03T15:13:28;8.40;99.90
11188;DHT22;5650;52.700;7.306;2023-03-03T15:16:11;8.40;99.90
11188;DHT22;5650;52.700;7.306;2023-03-03T15:19:23;8.40;99.90
11188;DHT22;5650;52.700;7.306;2023-03-03T15:22:04;8.40;99.90
11188;DHT22;5650;52.700;7.306;2023-03-03T15:24:39;8.30;99.90
11188;DHT22;5650;52.700;7.306;2023-03-03T15:27:23;8.30;99.90
11188;DHT22;5650;52.700;7.306;2023-03-03T15:30:01;8.20;99.90
11188;DHT22;5650;52.700;7.306;2023-03-03T15:32:37;8.20;99.90
11188;DHT22;5650;52.700;7.306;2023-03-03T15:35:18;8.10;99.90
11188;DHT22;5650;52.700;7.306;2023-03-03T15:38:00;8.10;99.90
11188;DHT22;5650;52.700;7.306;2023-03-03T15:40:35;8.00;99.90
11188;DHT22;5650;52.700;7.306;2023-03-03T15:43:19;8.00;99.90
11188;DHT22;5650;52.700;7.306;2023-03-03T15:45:52;7.90;99.90
11188;DHT22;5650;52.700;7.306;2023-03-03T15:48:39;8.00;99.90
11188;DHT22;5650;52.700;7.306;2023-03-03T15:51:12;8.00;99.90
11188;DHT22;5650;52.700;7.306;2023-03-03T15:54:15;8.00;99.90
11188;DHT22;5650;52.700;7.306;2023-03-03T15:56:49;7.90;99.90
11188;DHT22;5650;52.700;7.306;2023-03-03T15:59:54;8.00;99.90
11188;DHT22;5650;52.700;7.306;2023-03-03T16:02:32;7.90;99.90
11188;DHT22;5650;52.700;7.306;2023-03-03T16:05:15;7.90;99.90
11188;DHT22;5650;52.700;7.306;2023-03-03T16:07:56;7.90;99.90
11188;DHT22;5650;52.700;7.306;2023-03-03T16:10:33;7.80;99.90
11188;DHT22;5650;52.700;7.306;2023-03-03T16:13:19;7.80;99.90
11188;DHT22;5650;52.700;7.306;2023-03-03T16:16:01;7.80;99.90
11188;DHT22;5650;52.700;7.306;2023-03-03T16:18:45;7.80;99.90
11188;DHT22;5650;52.700;7.306;2023-03-03T16:21:24;7.70;99.90
11188;DHT22;5650;52.700;7.306;2023-03-03T16:24:11;7.70;99.90
11188;DHT22;5650;52.700;7.306;2023-03-03T16:26:51;7.70;99.90
11188;DHT22;5650;52.700;7.306;2023-03-03T16:29:38;7.60;99.90
11188;DHT22;5650;52.700;7.306;2023-03-03T16:32:12;7.70;99.90
11188;DHT22;5650;52.700;7.306;2023-03-03T16:34:57;7.60;99.90
11188;DHT22;5650;52.700;7.306;2023-03-03T16:37:36;7.60;99.90
11188;DHT22;5650;52.700;7.306;2023-03-03T16:40:20;7.60;99.90
11188;DHT22;5650;52.700;7.306;2023-03-03T16:43:03;7.50;99.90
11188;DHT22;5650;52.700;7.306;2023-03-03T16:45:36;7.50;99.90
11188;DHT22;5650;52.700;7.306;2023-03-03T16:48:25;7.50;99.90
11188;DHT22;5650;52.700;7.306;2023-03-03T16:51:08;7.50;99.90
11188;DHT22;5650;52.700;7.306;2023-03-03T16:53:49;7.50;99.90
11188;DHT22;5650;52.700;7.306;2023-03-03T16:56:21;7.40;99.90
11188;DHT22;5650;52.700;7.306;2023-03-03T17:02:08;7.40;99.90
11188;DHT22;5650;52.700;7.306;2023-03-03T17:04:46;7.40;99.90
11188;DHT22;5650;52.700;7.306;2023-03-03T17:10:21;7.40;99.90
11188;DHT22;5650;52.700;7.306;2023-03-03T17:13:06;7.30;99.90
11188;DHT22;5650;52.700;7.306;2023-03-03T17:15:43;7.30;99.90
11188;DHT22;5650;52.700;7.306;2023-03-03T17:18:23;7.30;99.90
11188;DHT22;5650;52.700;7.306;2023-03-03T17:20:59;7.20;99.90
11188;DHT22;5650;52.700;7.306;2023-03-03T17:23:41;7.20;99.90
11188;DHT22;5650;52.700;7.306;2023-03-03T17:26:23;7.20;99.90
11188;DHT22;5650;52.700;7.306;2023-03-03T17:29:04;7.10;99.90
11188;DHT22;5650;52.700;7.306;2023-03-03T17:31:45;7.00;99.90
11188;DHT22;5650;52.700;7.306;2023-03-03T17:34:26;7.00;99.90
11188;DHT22;5650;52.700;7.306;2023-03-03T17:37:11;7.00;99.90
11188;DHT22;5650;52.700;7.306;2023-03-03T17:40:01;6.90;99.90